Decoded Metar for OIBK (KISH ISLAND in IRAN) (IATA:KIH) | Meteo·Mobile Aviation Weather
aviador You're here:

OIBK Decoded Metar

KISH ISLAND in IRAN
Report Time2019-04-23 08:00:00
UTC Time2019-04-23 08:23:46
Flight Rules vfr VFR
Wind290° at 25 kt
W.Decomp.*RWY 27: 23.6 kt HW 8.1 kt RCW
Visibility9999 m
Phenomena:N/A
Clouds:Few 035 Hf
Expected CloudBase > 4,800 ft AGL from Temp-Dew spread
CeilingNone
Temp26°C (ISA +11)
Dew Point14°C (48% RH)
AAT18.3°C
QNH1011 hPa
Density Alt1,673 ft
Elevation98 ft
Report Wrong Elevation
Raw Report
METAR OIBK 230800Z 29025KT 9999 FEW035 26/14 Q1011=

Extra information for OIBK:More info

Metar Taf Metar & Taf Last 4 Metars F.Rules Stats Wind Profile Meteogram Temp Stats Airport Information Weather charts Add Link Nearby VenuesMetar ALERT Operation Metar Decoded Social comments